Time;durP1;ratioP1;P1;durP2;ratioP2;P2;SDS_P1;SDS_P2;PMS_P1;PMS_P2;Temp;Humidity;BMP_temperature;BMP_pressure;BME280_temperature;BME280_humidity;BME280_pressure;Samples;Min_cycle;Max_cycle;Signal;HPM_P1;HPM_P2
2020/12/17 00:02:22;;;;;;;161.75;85.65;;;;;;;5.61;68.42;99860.75;251413;1134;115028;-79
2020/12/17 00:07:24;;;;;;;157.33;84.77;;;;;;;5.60;68.10;99855.50;251703;1135;114963;-80
2020/12/17 00:12:26;;;;;;;151.77;80.23;;;;;;;5.62;67.91;99856.34;251647;1134;115787;-80
2020/12/17 00:17:29;;;;;;;156.03;88.53;;;;;;;5.63;68.59;99847.49;251761;1134;115114;-80
2020/12/17 00:22:34;;;;;;;161.62;91.12;;;;;;;5.66;68.96;99842.13;251708;1134;115342;-79
2020/12/17 00:27:39;;;;;;;;;;;;;;;5.63;68.40;99840.44;251682;1134;115037;-78
2020/12/17 00:32:46;;;;;;;156.53;86.57;;;;;;;5.62;68.19;99843.13;251764;1134;103800;-79
2020/12/17 00:37:48;;;;;;;144.95;84.50;;;;;;;5.61;68.20;99844.91;251639;1133;115296;-78
2020/12/17 00:42:55;;;;;;;141.93;80.17;;;;;;;5.58;68.75;99839.72;251495;1134;115138;-80
2020/12/17 00:47:57;;;;;;;139.82;80.70;;;;;;;5.54;69.05;99853.92;251729;1133;115194;-79
2020/12/17 00:53:00;;;;;;;155.77;82.93;;;;;;;5.51;69.11;99859.28;251654;1133;115578;-80
2020/12/17 00:58:02;;;;;;;166.77;84.07;;;;;;;5.51;68.66;99855.78;251669;1134;115068;-80
2020/12/17 01:03:05;;;;;;;148.60;78.30;;;;;;;5.54;68.99;99853.06;251734;1134;115249;-80
2020/12/17 01:08:09;;;;;;;159.27;84.23;;;;;;;5.60;68.34;99859.00;251890;1133;115569;-84
2020/12/17 01:13:11;;;;;;;166.00;84.15;;;;;;;5.62;69.15;99848.41;251381;1134;115643;-84
2020/12/17 01:18:15;;;;;;;154.20;85.77;;;;;;;5.63;68.79;99855.41;251523;1134;115210;-84
2020/12/17 01:23:18;;;;;;;167.53;89.90;;;;;;;5.61;68.31;99857.25;251655;1133;115345;-85
2020/12/17 01:28:20;;;;;;;166.83;90.67;;;;;;;5.57;68.49;99855.59;251646;1134;115471;-85
2020/12/17 01:33:23;;;;;;;157.40;89.23;;;;;;;5.53;68.60;99859.23;251473;1134;115186;-84
2020/12/17 01:38:27;;;;;;;160.70;90.43;;;;;;;5.50;68.45;99851.39;251770;1133;115441;-85
2020/12/17 01:43:40;;;;;;;165.87;91.97;;;;;;;5.45;69.30;99849.75;249376;1133;115352;-86
2020/12/17 01:48:43;;;;;;;165.23;87.27;;;;;;;5.44;68.54;99841.89;251732;1134;115174;-85
2020/12/17 01:53:46;;;;;;;160.60;86.10;;;;;;;5.44;69.50;99845.39;251430;1134;115152;-84
2020/12/17 01:59:18;;;;;;;184.90;96.43;;;;;;;5.48;68.78;99840.03;251623;1133;115432;-84
2020/12/17 02:04:22;;;;;;;184.07;98.40;;;;;;;5.51;68.59;99842.58;251564;1133;115449;-85
2020/12/17 02:09:25;;;;;;;165.73;94.13;;;;;;;5.53;69.92;99835.47;251523;1133;115234;-84
2020/12/17 02:14:27;;;;;;;177.43;98.87;;;;;;;5.51;68.91;99837.30;251554;1135;114980;-84
2020/12/17 02:19:30;;;;;;;177.07;99.60;;;;;;;5.46;68.29;99840.91;251873;1134;115268;-85
2020/12/17 02:24:33;;;;;;;177.15;98.55;;;;;;;5.44;69.29;99832.20;251755;1134;115099;-84
2020/12/17 02:29:35;;;;;;;169.70;98.30;;;;;;;5.45;68.99;99825.99;247968;1133;115247;-85
2020/12/17 02:34:38;;;;;;;179.57;99.57;;;;;;;5.48;68.58;99832.11;247990;1134;115084;-85
2020/12/17 02:39:41;;;;;;;184.90;98.20;;;;;;;5.44;69.75;99837.47;251109;1135;115328;-86
2020/12/17 02:44:43;;;;;;;176.27;92.63;;;;;;;5.46;69.68;99825.08;251843;1133;115660;-86
2020/12/17 02:49:47;;;;;;;184.73;100.00;;;;;;;5.51;69.83;99816.19;251895;1134;115486;-86
2020/12/17 02:54:50;;;;;;;187.57;101.90;;;;;;;5.51;69.19;99800.34;251745;1133;115367;-86
2020/12/17 02:59:56;;;;;;;183.30;100.40;;;;;;;5.51;69.03;99806.48;251806;1134;115435;-84
2020/12/17 03:04:58;;;;;;;183.97;99.20;;;;;;;5.52;69.95;99807.34;251929;1134;115202;-85
2020/12/17 03:10:04;;;;;;;180.23;97.30;;;;;;;5.48;69.08;99816.27;251889;1134;115156;-84
2020/12/17 03:15:08;;;;;;;178.47;98.17;;;;;;;5.43;69.57;99809.36;251833;1133;115318;-85
2020/12/17 03:20:12;;;;;;;174.38;95.07;;;;;;;5.42;70.00;99819.94;251802;1134;114978;-85
2020/12/17 03:25:16;;;;;;;173.55;94.05;;;;;;;5.43;69.57;99808.47;251798;1134;115136;-85
2020/12/17 03:30:19;;;;;;;165.47;86.07;;;;;;;5.44;70.46;99805.80;251817;1134;115080;-81
2020/12/17 03:35:23;;;;;;;166.70;87.07;;;;;;;5.54;69.55;99806.40;251629;1135;117238;-82
2020/12/17 03:40:28;;;;;;;177.57;97.87;;;;;;;5.58;69.64;99809.81;251707;1134;115326;-82
2020/12/17 03:45:30;;;;;;;193.65;108.05;;;;;;;5.56;69.62;99806.34;251467;1135;115572;-81
2020/12/17 03:50:33;;;;;;;235.63;122.10;;;;;;;5.63;70.18;99802.61;251754;1135;115198;-82
2020/12/17 03:55:35;;;;;;;228.07;116.50;;;;;;;5.62;70.21;99808.80;251440;1135;115266;-81
2020/12/17 04:00:38;;;;;;;214.87;115.20;;;;;;;5.58;69.83;99804.53;251731;1134;115137;-81
2020/12/17 04:05:40;;;;;;;201.40;104.87;;;;;;;5.50;70.10;99809.16;251735;1132;115230;-81
2020/12/17 04:10:42;;;;;;;177.05;95.10;;;;;;;5.42;69.82;99801.46;251448;1133;115368;-79
2020/12/17 04:15:44;;;;;;;168.40;83.93;;;;;;;5.36;68.84;99805.13;251669;1133;115056;-77
2020/12/17 04:20:47;;;;;;;136.33;70.37;;;;;;;5.36;68.92;99796.35;251189;1134;115913;-79
2020/12/17 04:25:50;;;;;;;175.10;90.10;;;;;;;5.39;69.26;99791.85;249291;1133;115351;-84
2020/12/17 04:30:54;;;;;;;162.87;87.37;;;;;;;5.40;69.32;99793.61;250526;1134;115608;-78
2020/12/17 04:35:57;;;;;;;149.93;80.72;;;;;;;5.34;69.88;99795.55;249239;1134;117710;-79
2020/12/17 04:41:05;;;;;;;137.90;77.60;;;;;;;5.24;69.50;99802.86;251635;1134;115038;-79
2020/12/17 04:46:14;;;;;;;139.73;74.77;;;;;;;5.17;69.50;99796.89;251834;1133;116062;-79
2020/12/17 04:51:18;;;;;;;134.17;73.83;;;;;;;5.06;68.71;99803.34;251812;1133;115379;-77
2020/12/17 04:56:21;;;;;;;141.57;73.25;;;;;;;4.95;68.25;99808.91;251475;1134;114995;-77
2020/12/17 05:01:31;;;;;;;132.20;71.28;;;;;;;4.86;69.29;99815.31;251688;1134;115202;-77
2020/12/17 05:06:37;;;;;;;123.17;66.13;;;;;;;4.78;68.89;99816.41;251638;1134;115010;-77
2020/12/17 05:11:40;;;;;;;135.67;70.00;;;;;;;4.73;68.75;99821.81;251643;1133;115083;-82
2020/12/17 05:16:42;;;;;;;130.97;64.67;;;;;;;4.73;69.69;99830.59;250890;1134;114926;-83
2020/12/17 05:21:45;;;;;;;125.90;64.83;;;;;;;4.72;69.89;99828.86;251642;1134;115291;-83
2020/12/17 05:26:52;;;;;;;132.70;64.27;;;;;;;4.70;68.87;99832.44;251806;1133;115347;-81
2020/12/17 05:31:54;;;;;;;126.37;58.90;;;;;;;4.64;69.13;99827.31;251638;1135;115230;-81
2020/12/17 05:36:57;;;;;;;120.57;56.70;;;;;;;4.54;69.30;99831.94;251659;1134;114913;-81
2020/12/17 05:42:01;;;;;;;118.67;56.03;;;;;;;4.47;69.69;99841.77;251764;1134;115136;-78
2020/12/17 05:47:03;;;;;;;124.58;58.78;;;;;;;4.38;69.18;99847.28;251805;1134;114904;-81
2020/12/17 05:52:22;;;;;;;114.22;54.35;;;;;;;4.31;69.54;99845.66;251426;1133;115106;-79
2020/12/17 05:57:24;;;;;;;121.77;56.67;;;;;;;4.24;69.45;99852.84;251518;1134;115104;-78
2020/12/17 06:02:30;;;;;;;109.97;54.20;;;;;;;4.23;69.75;99850.26;251631;1135;114554;-80
2020/12/17 06:07:45;;;;;;;108.20;53.80;;;;;;;4.24;69.16;99857.25;251547;1134;115172;-80
2020/12/17 06:13:00;;;;;;;106.27;52.70;;;;;;;4.20;69.19;99851.19;251683;1135;115338;-79
2020/12/17 06:18:05;;;;;;;111.10;51.98;;;;;;;4.17;69.38;99847.76;251676;1135;115884;-79
2020/12/17 06:23:11;;;;;;;107.30;53.50;;;;;;;4.12;68.74;99857.55;251854;1135;116053;-79
2020/12/17 06:28:36;;;;;;;106.50;52.53;;;;;;;4.06;69.78;99860.31;251623;1134;115137;-79
2020/12/17 06:33:38;;;;;;;116.57;53.80;;;;;;;3.95;69.48;99858.78;251593;1134;115024;-78
2020/12/17 06:38:43;;;;;;;112.77;57.13;;;;;;;3.87;69.30;99865.97;251551;1135;115437;-78
2020/12/17 06:43:45;;;;;;;133.12;63.90;;;;;;;3.80;68.96;99864.37;251869;1133;116057;-79
2020/12/17 06:48:47;;;;;;;135.97;66.33;;;;;;;3.77;69.01;99874.95;251620;1134;115015;-80
2020/12/17 06:53:50;;;;;;;140.67;71.97;;;;;;;3.77;69.34;99885.48;251428;1133;115370;-79
2020/12/17 06:59:16;;;;;;;140.50;69.63;;;;;;;3.77;69.96;99885.48;251831;1134;115177;-79
2020/12/17 07:04:45;;;;;;;129.50;70.77;;;;;;;3.76;69.53;99883.77;251714;1135;115114;-80
2020/12/17 07:09:52;;;;;;;127.47;70.55;;;;;;;3.71;69.89;99885.64;251500;1134;115217;-80
2020/12/17 07:14:56;;;;;;;121.20;66.73;;;;;;;3.65;69.17;99891.02;251601;1134;115156;-79
2020/12/17 07:19:58;;;;;;;125.00;66.73;;;;;;;3.58;69.30;99894.67;251718;1134;114720;-80
2020/12/17 07:25:00;;;;;;;118.05;64.07;;;;;;;3.47;69.53;99903.65;251343;1135;115258;-80
2020/12/17 07:30:11;;;;;;;136.00;72.03;;;;;;;3.40;69.18;99907.30;251728;1133;115244;-80
2020/12/17 07:35:15;;;;;;;133.95;70.70;;;;;;;3.40;69.40;99911.70;251661;1134;115516;-80
2020/12/17 07:40:36;;;;;;;128.73;67.97;;;;;;;3.40;69.53;99912.56;251677;1134;115547;-80
2020/12/17 07:45:57;;;;;;;121.17;66.47;;;;;;;3.38;69.57;99911.70;251796;1135;115070;-80
2020/12/17 07:51:15;;;;;;;121.83;67.87;;;;;;;3.35;69.18;99908.27;251746;1133;115039;-81
2020/12/17 07:56:18;;;;;;;118.30;64.17;;;;;;;3.30;69.93;99905.73;251531;1134;114987;-82
2020/12/17 08:01:20;;;;;;;116.42;61.35;;;;;;;3.25;69.09;99897.91;251558;1135;115660;-81
2020/12/17 08:06:25;;;;;;;108.73;60.60;;;;;;;3.21;69.22;99905.89;251626;1136;115509;-80
2020/12/17 08:11:28;;;;;;;115.77;64.63;;;;;;;3.18;69.61;99908.58;251670;1134;114947;-81
2020/12/17 08:16:32;;;;;;;113.15;61.60;;;;;;;3.23;69.30;99904.11;251864;1134;117122;-81
2020/12/17 08:21:37;;;;;;;112.83;62.73;;;;;;;3.28;69.77;99913.64;251615;1133;115601;-82
2020/12/17 08:26:40;;;;;;;107.27;57.13;;;;;;;3.30;69.82;99916.25;251705;1135;115172;-81
2020/12/17 08:31:43;;;;;;;104.13;59.30;;;;;;;3.31;70.15;99920.61;251567;1133;115341;-80
2020/12/17 08:36:45;;;;;;;111.77;60.83;;;;;;;3.33;69.58;99921.47;251819;1133;114956;-82
2020/12/17 08:41:52;;;;;;;106.60;60.47;;;;;;;3.39;69.54;99929.22;251646;1135;115386;-82
2020/12/17 08:47:01;;;;;;;114.00;63.20;;;;;;;3.42;69.91;99920.41;251964;1134;114925;-81
2020/12/17 08:52:03;;;;;;;118.57;65.17;;;;;;;3.46;70.17;99922.94;251817;1134;115229;-81
2020/12/17 08:57:16;;;;;;;130.63;65.90;;;;;;;3.56;70.18;99913.11;251608;1134;116103;-82
2020/12/17 09:02:26;;;;;;;122.27;60.03;;;;;;;3.64;70.42;99911.22;251685;1134;115080;-81
2020/12/17 09:07:31;;;;;;;120.70;60.03;;;;;;;3.73;69.72;99912.78;251726;1134;115222;-82
2020/12/17 09:12:33;;;;;;;115.67;59.70;;;;;;;3.77;69.89;99912.70;251787;1135;115244;-81
2020/12/17 09:17:37;;;;;;;106.32;57.03;;;;;;;3.81;69.73;99915.28;251728;1135;115268;-82
2020/12/17 09:22:39;;;;;;;109.17;58.13;;;;;;;3.79;69.72;99910.03;251578;1134;115469;-82
2020/12/17 09:27:43;;;;;;;99.47;54.93;;;;;;;3.79;70.02;99904.77;251698;1135;115311;-80
2020/12/17 09:33:01;;;;;;;97.60;54.03;;;;;;;3.77;69.72;99904.81;251525;1135;115272;-81
2020/12/17 09:38:17;;;;;;;87.17;48.93;;;;;;;3.76;69.80;99892.52;251620;1133;116834;-82
2020/12/17 09:43:19;;;;;;;87.82;47.70;;;;;;;3.77;69.36;99896.91;251555;1135;115286;-81
2020/12/17 09:48:28;;;;;;;94.40;51.63;;;;;;;3.79;70.14;99892.46;250664;1135;115128;-82
2020/12/17 09:53:33;;;;;;;96.93;52.57;;;;;;;3.86;70.42;99898.47;251459;1134;114924;-80
2020/12/17 09:58:36;;;;;;;93.40;49.98;;;;;;;3.93;70.19;99892.17;251663;1135;115998;-80
2020/12/17 10:03:39;;;;;;;90.07;49.73;;;;;;;3.96;70.29;99889.47;251633;1134;114846;-81
2020/12/17 10:08:42;;;;;;;89.27;49.00;;;;;;;3.97;69.24;99878.06;251581;1134;115125;-81
2020/12/17 10:13:44;;;;;;;87.27;47.43;;;;;;;3.98;69.67;99882.42;251852;1133;115094;-80
2020/12/17 10:18:47;;;;;;;80.90;45.87;;;;;;;3.97;69.34;99878.06;251699;1134;115848;-80
2020/12/17 10:23:49;;;;;;;81.37;44.40;;;;;;;3.96;69.35;99878.08;251640;1134;114878;-83
2020/12/17 10:28:51;;;;;;;84.23;45.77;;;;;;;3.95;69.14;99884.26;251624;1134;114945;-80
2020/12/17 10:33:55;;;;;;;79.37;45.70;;;;;;;3.96;70.12;99871.05;251527;1134;115432;-81
2020/12/17 10:38:58;;;;;;;97.07;50.60;;;;;;;4.01;70.17;99868.33;251362;1133;114850;-80
2020/12/17 10:44:01;;;;;;;87.53;48.00;;;;;;;4.09;69.84;99878.69;251422;1134;115010;-80
2020/12/17 10:49:05;;;;;;;96.40;50.30;;;;;;;4.15;69.66;99874.15;251712;1135;114800;-80
2020/12/17 10:54:07;;;;;;;93.82;49.40;;;;;;;4.21;69.28;99870.48;251660;1135;115735;-81
2020/12/17 10:59:09;;;;;;;90.60;48.87;;;;;;;4.25;69.55;99859.87;251806;1133;115242;-81
2020/12/17 11:04:12;;;;;;;86.95;46.55;;;;;;;4.23;69.58;99866.92;251569;1135;115041;-81
2020/12/17 11:09:15;;;;;;;86.20;46.23;;;;;;;4.21;69.28;99875.76;251496;1133;114691;-81
2020/12/17 11:14:17;;;;;;;81.90;43.67;;;;;;;4.21;69.51;99875.76;251761;1134;114969;-81
2020/12/17 11:19:20;;;;;;;87.77;46.00;;;;;;;4.20;69.95;99863.50;251679;1133;115085;-81
2020/12/17 11:24:23;;;;;;;88.67;45.15;;;;;;;4.24;69.55;99867.79;251967;1135;114875;-81
2020/12/17 11:29:26;;;;;;;94.40;48.83;;;;;;;4.22;69.39;99867.84;251789;1133;115159;-81
2020/12/17 11:34:28;;;;;;;101.40;51.37;;;;;;;4.29;69.77;99868.56;251723;1133;115030;-81
2020/12/17 11:39:30;;;;;;;96.30;50.73;;;;;;;4.30;69.07;99869.42;251726;1133;115501;-84
2020/12/17 11:44:34;;;;;;;104.40;52.57;;;;;;;4.29;69.70;99870.34;251600;1134;114798;-79
2020/12/17 11:49:37;;;;;;;103.27;53.07;;;;;;;4.24;68.78;99873.06;251737;1135;115394;-83
2020/12/17 11:54:39;;;;;;;101.60;51.47;;;;;;;4.25;69.19;99877.45;251475;1134;114945;-83
2020/12/17 11:59:42;;;;;;;98.03;52.40;;;;;;;4.25;69.19;99872.18;251521;1134;115108;-83
2020/12/17 12:04:44;;;;;;;112.33;56.17;;;;;;;4.27;68.97;99871.22;251720;1133;115348;-82
2020/12/17 12:09:47;;;;;;;89.00;47.07;;;;;;;4.30;69.30;99874.70;251695;1133;115072;-82
2020/12/17 12:14:49;;;;;;;87.37;46.20;;;;;;;4.27;68.85;99872.98;251726;1134;114719;-82
2020/12/17 12:19:51;;;;;;;106.07;51.47;;;;;;;4.29;68.69;99876.47;251540;1133;115383;-79
2020/12/17 12:24:54;;;;;;;97.17;51.07;;;;;;;4.34;69.86;99868.45;251671;1135;114961;-79
2020/12/17 12:29:56;;;;;;;104.57;55.33;;;;;;;4.43;69.68;99869.10;251464;1134;114905;-79
2020/12/17 12:34:58;;;;;;;93.60;52.30;;;;;;;4.48;69.28;99869.88;251531;1134;115011;-79
2020/12/17 12:40:01;;;;;;;101.58;54.10;;;;;;;4.54;68.76;99862.70;251576;1134;114587;-79
2020/12/17 12:45:03;;;;;;;99.27;52.77;;;;;;;4.60;69.31;99867.84;250312;1134;115080;-81
2020/12/17 12:50:10;;;;;;;91.53;52.73;;;;;;;4.60;69.41;99865.20;251413;1133;114874;-82
2020/12/17 12:55:23;;;;;;;92.07;52.17;;;;;;;4.58;68.88;99864.36;251158;1133;115650;-81
2020/12/17 13:00:27;;;;;;;89.50;51.13;;;;;;;4.55;68.63;99854.75;251691;1134;114965;-81
2020/12/17 13:05:32;;;;;;;91.17;50.80;;;;;;;4.56;69.21;99860.91;251670;1133;115382;-81
2020/12/17 13:10:38;;;;;;;102.70;54.40;;;;;;;4.54;68.95;99863.57;251714;1133;115521;-81
2020/12/17 13:15:42;;;;;;;90.40;51.43;;;;;;;4.62;69.28;99860.73;251567;1133;115030;-78
2020/12/17 13:20:45;;;;;;;91.05;50.10;;;;;;;4.67;68.75;99851.83;251490;1133;115017;-79
2020/12/17 13:25:47;;;;;;;85.70;46.90;;;;;;;4.69;68.25;99854.44;251570;1133;115571;-79
2020/12/17 13:30:50;;;;;;;78.97;46.40;;;;;;;4.68;69.00;99853.55;251568;1135;114794;-79
2020/12/17 13:35:52;;;;;;;74.17;41.17;;;;;;;4.70;69.00;99858.80;251482;1135;114853;-79
2020/12/17 13:40:55;;;;;;;76.33;43.17;;;;;;;4.66;68.14;99865.06;251575;1134;114795;-79
2020/12/17 13:45:58;;;;;;;70.80;40.33;;;;;;;4.64;68.86;99866.85;251736;1135;114918;-79
2020/12/17 13:51:00;;;;;;;73.70;40.70;;;;;;;4.63;68.98;99855.45;251515;1133;114712;-79
2020/12/17 13:56:03;;;;;;;70.97;39.83;;;;;;;4.57;68.62;99858.23;251600;1133;114934;-78
2020/12/17 14:01:07;;;;;;;77.60;41.67;;;;;;;4.61;68.15;99849.33;251553;1134;115144;-87
2020/12/17 14:06:09;;;;;;;67.85;38.88;;;;;;;4.63;68.34;99855.45;251354;1135;114632;-84
2020/12/17 14:11:16;;;;;;;71.20;41.50;;;;;;;4.66;69.02;99857.15;250004;1135;115216;-82
2020/12/17 14:16:18;;;;;;;71.93;39.87;;;;;;;4.64;68.95;99856.30;251804;1134;115196;-83
2020/12/17 14:21:22;;;;;;;72.40;40.63;;;;;;;4.66;68.18;99865.06;250957;1134;115395;-82
2020/12/17 14:26:28;;;;;;;73.30;40.80;;;;;;;4.66;68.28;99867.70;250318;1134;114915;-82
2020/12/17 14:31:30;;;;;;;69.93;37.83;;;;;;;4.67;68.09;99866.78;249701;1134;114625;-83
2020/12/17 14:36:40;;;;;;;71.70;38.40;;;;;;;4.69;69.26;99870.26;250523;1134;114563;-85
2020/12/17 14:41:43;;;;;;;57.53;32.00;;;;;;;4.73;69.12;99869.27;250518;1134;114913;-86
2020/12/17 14:46:45;;;;;;;66.30;36.10;;;;;;;4.77;68.86;99865.65;248972;1134;114676;-81
2020/12/17 14:51:48;;;;;;;61.23;35.20;;;;;;;4.97;68.53;99871.28;251828;1135;114756;-84
2020/12/17 14:56:51;;;;;;;60.80;33.70;;;;;;;4.93;67.77;99872.27;251714;1135;115060;-84
2020/12/17 15:01:58;;;;;;;59.77;33.63;;;;;;;4.86;67.94;99873.34;251635;1134;115457;-84
2020/12/17 15:07:01;;;;;;;61.73;34.93;;;;;;;4.78;68.20;99867.37;251625;1134;114778;-83
2020/12/17 15:12:04;;;;;;;62.23;35.73;;;;;;;4.70;68.43;99871.98;251822;1134;114611;-83
2020/12/17 15:17:08;;;;;;;60.43;34.23;;;;;;;4.68;67.81;99886.95;251730;1134;115032;-84
2020/12/17 15:22:11;;;;;;;64.70;36.75;;;;;;;4.67;68.70;99875.55;251523;1134;114918;-78
2020/12/17 15:27:13;;;;;;;70.23;37.23;;;;;;;4.61;68.65;99877.47;251567;1134;114852;-76
2020/12/17 15:32:16;;;;;;;75.60;38.17;;;;;;;4.56;68.57;99876.73;251668;1134;114813;-77
2020/12/17 15:37:19;;;;;;;86.05;45.45;;;;;;;4.55;67.77;99870.56;251747;1134;114986;-78
2020/12/17 15:42:21;;;;;;;86.13;44.90;;;;;;;4.58;68.20;99864.36;251620;1135;115177;-77
2020/12/17 15:47:24;;;;;;;87.73;46.57;;;;;;;4.61;68.96;99870.42;251844;1133;115054;-78
2020/12/17 15:52:26;;;;;;;92.73;47.80;;;;;;;4.67;68.34;99862.38;251854;1133;115153;-78
2020/12/17 15:57:28;;;;;;;93.43;49.50;;;;;;;4.75;68.23;99864.80;248660;1134;114887;-79
2020/12/17 16:02:30;;;;;;;90.65;47.38;;;;;;;4.80;67.91;99867.34;251735;1133;114991;-80
2020/12/17 16:07:33;;;;;;;89.60;46.13;;;;;;;4.78;68.13;99863.87;251640;1133;114907;-81
2020/12/17 16:12:35;;;;;;;99.90;51.43;;;;;;;4.78;67.70;99869.14;251855;1133;114654;-80
2020/12/17 16:17:38;;;;;;;97.03;51.10;;;;;;;4.82;69.00;99878.70;251579;1135;114460;-80
2020/12/17 16:22:40;;;;;;;92.60;48.67;;;;;;;4.83;68.74;99876.05;251784;1134;116048;-80
2020/12/17 16:27:43;;;;;;;94.77;49.67;;;;;;;4.84;67.76;99874.27;251579;1134;114851;-79
2020/12/17 16:32:47;;;;;;;108.27;53.33;;;;;;;4.82;67.83;99865.52;251730;1135;114936;-80
2020/12/17 16:37:53;;;;;;;98.12;51.20;;;;;;;4.84;67.74;99869.86;251781;1134;115090;-80
2020/12/17 16:43:00;;;;;;;91.37;47.50;;;;;;;4.87;68.12;99875.06;251589;1133;115120;-80
2020/12/17 16:48:02;;;;;;;84.57;45.07;;;;;;;4.90;68.58;99868.84;251485;1135;115375;-80
2020/12/17 16:53:07;;;;;;;78.22;42.80;;;;;;;4.90;67.31;99866.21;251559;1135;115022;-79
2020/12/17 16:58:10;;;;;;;86.07;47.17;;;;;;;4.90;68.30;99874.13;251473;1134;114943;-80
2020/12/17 17:03:13;;;;;;;81.00;44.93;;;;;;;4.88;68.22;99868.87;251680;1134;114951;-80
2020/12/17 17:08:15;;;;;;;82.17;44.90;;;;;;;4.88;67.76;99854.83;251674;1134;115089;-80
2020/12/17 17:13:18;;;;;;;78.97;45.07;;;;;;;4.87;67.33;99855.73;251591;1135;114776;-80
2020/12/17 17:18:20;;;;;;;76.10;43.85;;;;;;;4.87;67.85;99855.73;251565;1134;114756;-81
2020/12/17 17:23:23;;;;;;;80.87;43.63;;;;;;;4.85;67.81;99861.03;251650;1135;115018;-82
2020/12/17 17:28:30;;;;;;;82.93;43.33;;;;;;;4.86;68.12;99857.52;251713;1134;114772;-83
2020/12/17 17:34:16;;;;;;;80.87;44.13;;;;;;;4.93;67.57;99866.14;251404;1135;114569;-82
2020/12/17 17:39:18;;;;;;;71.40;40.20;;;;;;;4.94;68.16;99873.99;251374;1135;115447;-81
2020/12/17 17:44:21;;;;;;;74.30;40.25;;;;;;;4.94;67.83;99860.80;251391;1133;115028;-80
2020/12/17 17:49:39;;;;;;;83.05;43.75;;;;;;;4.95;67.75;99865.16;251414;1135;115066;-80
2020/12/17 17:54:43;;;;;;;76.90;43.23;;;;;;;4.95;67.71;99869.58;251345;1134;114939;-80
2020/12/17 17:59:45;;;;;;;71.20;40.33;;;;;;;4.97;67.07;99870.42;250895;1135;114545;-81
2020/12/17 18:04:48;;;;;;;69.93;39.80;;;;;;;4.93;66.73;99874.91;251324;1134;115077;-80
2020/12/17 18:09:51;;;;;;;73.55;41.40;;;;;;;4.92;66.74;99874.93;251348;1135;114834;-79
2020/12/17 18:14:53;;;;;;;72.17;40.40;;;;;;;4.92;67.27;99874.93;251383;1133;114893;-81
2020/12/17 18:19:57;;;;;;;74.40;40.93;;;;;;;4.88;66.71;99874.14;251605;1133;115835;-78
2020/12/17 18:25:00;;;;;;;79.97;44.07;;;;;;;4.90;66.99;99877.63;251803;1140;115206;-81
2020/12/17 18:30:04;;;;;;;67.70;37.50;;;;;;;5.00;67.52;99866.84;251215;1135;114965;-81
2020/12/17 18:35:07;;;;;;;77.05;44.90;;;;;;;5.06;67.05;99869.30;251872;1135;115104;-82
2020/12/17 18:40:10;;;;;;;77.00;44.30;;;;;;;5.08;67.29;99867.50;251803;1134;114914;-89
2020/12/17 18:45:17;;;;;;;81.57;46.90;;;;;;;5.11;66.89;99873.56;249916;1135;114650;-92
2020/12/17 18:50:21;;;;;;;80.37;44.97;;;;;;;5.10;67.32;99863.06;250669;1134;115587;-90
2020/12/17 18:55:26;;;;;;;85.62;47.55;;;;;;;5.05;67.59;99864.94;251675;1134;115764;-84
2020/12/17 19:00:30;;;;;;;92.05;50.73;;;;;;;5.06;67.57;99866.66;251690;1135;114923;-84
2020/12/17 19:05:33;;;;;;;92.50;48.58;;;;;;;5.08;67.86;99859.59;251358;1134;115276;-79
2020/12/17 19:10:35;;;;;;;86.40;49.13;;;;;;;5.06;67.37;99853.47;251519;1134;114904;-79
2020/12/17 19:15:38;;;;;;;91.57;49.43;;;;;;;5.06;66.63;99862.28;251767;1134;114677;-79
2020/12/17 19:20:40;;;;;;;90.00;48.53;;;;;;;5.04;67.59;99860.58;251528;1134;114840;-79
2020/12/17 19:25:42;;;;;;;86.28;49.13;;;;;;;5.04;67.13;99861.44;251727;1133;114706;-79
2020/12/17 19:30:45;;;;;;;93.17;51.50;;;;;;;5.04;67.03;99868.48;251272;1134;114928;-86
2020/12/17 19:35:50;;;;;;;94.80;51.37;;;;;;;5.07;66.61;99866.64;251579;1135;115507;-78
2020/12/17 19:40:53;;;;;;;92.23;51.13;;;;;;;5.15;67.57;99869.06;251404;1135;115381;-83
2020/12/17 19:45:56;;;;;;;95.17;53.43;;;;;;;5.16;67.11;99869.05;248443;1134;116683;-82
2020/12/17 19:50:59;;;;;;;88.60;50.40;;;;;;;5.15;67.33;99872.56;251781;1135;115416;-86
2020/12/17 19:56:01;;;;;;;97.57;53.27;;;;;;;5.15;67.23;99875.20;251922;1134;114833;-85
2020/12/17 20:01:04;;;;;;;88.37;49.63;;;;;;;5.15;66.69;99877.84;251795;1136;115221;-86
2020/12/17 20:06:07;;;;;;;96.90;49.80;;;;;;;5.15;66.58;99874.34;251913;1134;114511;-84
2020/12/17 20:11:11;;;;;;;86.57;48.27;;;;;;;5.11;67.10;99876.20;251939;1142;114884;-84
2020/12/17 20:16:13;;;;;;;89.55;49.55;;;;;;;5.10;67.05;99884.16;251349;1133;114891;-84
2020/12/17 20:21:21;;;;;;;95.13;49.77;;;;;;;5.09;66.91;99877.13;251564;1133;114776;-89
2020/12/17 20:26:27;;;;;;;119.03;57.30;;;;;;;5.11;67.46;99881.47;251554;1134;114933;-83
2020/12/17 20:31:30;;;;;;;105.05;57.35;;;;;;;5.16;66.99;99882.23;251663;1133;115600;-82
2020/12/17 20:36:32;;;;;;;107.20;58.53;;;;;;;5.17;66.50;99888.38;251883;1134;115643;-85
2020/12/17 20:41:35;;;;;;;109.97;57.60;;;;;;;5.14;66.64;99891.95;249973;1134;117888;-82
2020/12/17 20:46:37;;;;;;;112.80;58.77;;;;;;;5.17;66.70;99883.09;251452;1133;114796;-84
2020/12/17 20:51:40;;;;;;;101.80;56.93;;;;;;;5.11;66.60;99888.53;250155;1134;114954;-87
2020/12/17 20:56:44;;;;;;;102.50;56.13;;;;;;;5.04;66.59;99894.87;251242;1134;115417;-88
2020/12/17 21:01:49;;;;;;;116.57;60.07;;;;;;;4.98;67.07;99902.02;251073;1135;115019;-86
2020/12/17 21:06:55;;;;;;;108.03;58.55;;;;;;;4.96;66.84;99906.48;252108;1134;114759;-87
2020/12/17 21:11:57;;;;;;;116.00;60.93;;;;;;;4.95;67.61;99906.50;251410;1134;114953;-86
2020/12/17 21:17:02;;;;;;;120.23;62.47;;;;;;;4.92;66.83;99912.72;250547;1135;114953;-87
2020/12/17 21:22:05;;;;;;;132.85;67.97;;;;;;;4.91;67.81;99910.99;251545;1135;115054;-87
2020/12/17 21:27:09;;;;;;;124.43;66.70;;;;;;;4.95;67.44;99910.00;250825;1134;118000;-80
2020/12/17 21:32:15;;;;;;;129.40;69.13;;;;;;;4.97;67.46;99918.76;250959;1134;115186;-80
2020/12/17 21:37:24;;;;;;;137.87;71.67;;;;;;;4.98;66.85;99922.26;251379;1134;115132;-83
2020/12/17 21:42:26;;;;;;;130.03;68.03;;;;;;;5.01;67.15;99921.33;251892;1133;115228;-81
2020/12/17 21:47:33;;;;;;;119.30;64.80;;;;;;;4.96;67.36;99924.09;251590;1134;114992;-81
2020/12/17 21:52:36;;;;;;;128.57;67.27;;;;;;;4.93;67.50;99925.02;251731;1135;115173;-80
2020/12/17 21:57:38;;;;;;;127.80;69.87;;;;;;;4.90;66.81;99918.95;251664;1135;115011;-81
2020/12/17 22:02:41;;;;;;;121.67;65.07;;;;;;;4.88;67.51;99926.03;251792;1134;115848;-81
2020/12/17 22:07:43;;;;;;;131.73;69.83;;;;;;;4.86;67.55;99923.45;251502;1134;114955;-89
2020/12/17 22:12:46;;;;;;;128.70;68.73;;;;;;;4.82;67.43;99921.76;251368;1134;114667;-88
2020/12/17 22:17:52;;;;;;;145.27;75.80;;;;;;;4.81;66.51;99913.91;249957;1134;115328;-88
2020/12/17 22:22:55;;;;;;;136.25;73.22;;;;;;;4.84;67.48;99914.69;251674;1135;114546;-88
2020/12/17 22:27:57;;;;;;;138.03;71.13;;;;;;;4.83;67.55;99920.02;249813;1135;115309;-81
2020/12/17 22:33:00;;;;;;;128.97;70.00;;;;;;;4.87;67.53;99922.53;251614;1134;114860;-82
2020/12/17 22:38:17;;;;;;;117.13;61.80;;;;;;;4.86;67.96;99931.36;249272;1134;116007;-86
2020/12/17 22:43:29;;;;;;;112.23;59.33;;;;;;;4.84;67.54;99935.78;250845;1134;115620;-86
2020/12/17 22:48:37;;;;;;;106.57;59.37;;;;;;;4.79;66.98;99932.41;248760;1134;115260;-78
2020/12/17 22:53:40;;;;;;;109.83;58.00;;;;;;;4.77;66.91;99935.98;251036;1134;115106;-80